Portada
METAR-TAF:

METAR-TAF

Aeroports :

Al-Riyad, Aràbia Saudita

latitud: 24-56N, longitud: 046-43E, altitud: 614 m

Observació

L'informe es va fer fa 39 minuts, a les 21:00 UTC
Vent 4 kt del Nord
Temperatura 17°C
Humitat 39%
Pressió 1019 hPa
Visibilitat 10 km o més
sense núvols per sota de 1500 mi sense presència de cumulonimbus.

METAR: OERK 012100Z 01004KT CAVOK 17/03 Q1019 NOSIG

Hora: 00:39 (21:39 UTC)

Pronòstic

L'informe es va fer fa 4 hores i 39 minuts, a les 17:00 UTC
Pronòstic vàlid del 01 a les 18 UTC al 02 a les 24 UTC
Vent 10 kt del Nord/Nord-Oest
Visibilitat: 7000 m
Temporalment
l' 01 a les 18 UTC al 02 a les 06 UTC
Visibilitat: 4000 m
Pols estès
Evolucionant progressivament
l' 02 a les 06 UTC al 02 a les 08 UTC
Vent 10 kt del Nord-Est

TAF: OERK 011700Z 0118/0224 34010KT 7000 NSC TEMPO 0118/0206 4000 DU BECMG 0206/0208 04010KT

Observacions i pronòstics meteorològics de més de 4000 aeroports (METAR i TAF).

Les estacions disponibles són els punts grocs i vermells al mapa.

Posi el ratolí al punt desitjat per veure el nom de l'estació.

Feu clic per veure les observacions i els pronòstics meteorològics.

Per canviar el mapa: feu clic els botons verds amb una creu de color negre per apropar; al botó verd amb un guió per allunyar la imatge; o en les fletxes verdes per a mapes adjacents.


METAR-TAF: